Time;durP1;ratioP1;P1;durP2;ratioP2;P2;SDS_P1;SDS_P2;PMS_P1;PMS_P2;Temp;Humidity;BMP_temperature;BMP_pressure;BME280_temperature;BME280_humidity;BME280_pressure;Samples;Min_cycle;Max_cycle;Signal;HPM_P1;HPM_P2
2024/01/03 00:00:40;;;;;;;;;4.00;3.00;;;;;11.33;72.81;99378.19;5075446;28;45478;-78
2024/01/03 00:03:07;;;;;;;;;2.67;2.00;;;;;11.68;72.97;99435.22;5075817;28;45595;-77
2024/01/03 00:05:39;;;;;;;;;5.00;2.00;;;;;11.61;72.98;99413.78;5074913;28;45638;-78
2024/01/03 00:08:09;;;;;;;;;5.00;3.00;;;;;11.68;72.72;99420.06;5075018;28;45498;-78
2024/01/03 00:11:01;;;;;;;;;8.00;2.00;;;;;11.68;72.91;99421.91;5076098;28;45412;-77
2024/01/03 00:13:30;;;;;;;;;3.67;2.00;;;;;11.68;72.31;99414.75;5071335;28;46079;-77
2024/01/03 00:16:01;;;;;;;;;5.00;4.00;;;;;11.70;72.71;99414.56;5078414;28;46636;-75
2024/01/03 00:18:54;;;;;;;;;4.00;1.00;;;;;11.69;73.36;99408.41;5078257;28;45616;-77
2024/01/03 00:21:25;;;;;;;;;4.67;2.33;;;;;11.74;73.07;99413.16;5060586;28;45355;-77
2024/01/03 00:23:53;;;;;;;;;6.75;3.25;;;;;11.73;72.81;99417.66;5079201;28;45578;-77
2024/01/03 00:26:19;;;;;;;;;4.00;4.00;;;;;11.52;73.02;99377.66;5079053;28;46470;-78
2024/01/03 00:28:45;;;;;;;;;5.33;4.00;;;;;11.62;72.76;99407.50;5078857;28;45451;-77
2024/01/03 00:31:41;;;;;;;;;4.67;3.67;;;;;11.76;73.47;99425.28;5079109;28;45312;-76
2024/01/03 00:34:15;;;;;;;;;3.00;3.00;;;;;11.76;73.46;99433.28;5078309;28;45575;-76
2024/01/03 00:36:40;;;;;;;;;6.00;4.33;;;;;11.77;73.10;99434.09;5078198;28;45485;-76
2024/01/03 00:39:06;;;;;;;;;4.00;1.67;;;;;11.70;73.10;99414.56;5060153;28;45423;-78
2024/01/03 00:41:31;;;;;;;;;5.33;3.00;;;;;11.72;73.43;99424.00;5078443;28;45538;-76
2024/01/03 00:43:57;;;;;;;;;1.25;1.25;;;;;11.22;73.52;99340.38;5078234;28;45514;-78
2024/01/03 00:46:22;;;;;;;;;4.00;3.00;;;;;11.61;73.81;99402.31;5078123;28;47628;-77
2024/01/03 00:48:47;;;;;;;;;11.00;3.00;;;;;11.52;74.10;99393.63;5078346;28;45540;-77
2024/01/03 00:51:13;;;;;;;;;4.00;3.00;;;;;11.53;73.94;99400.59;5078035;28;45552;-75
2024/01/03 00:53:38;;;;;;;;;4.75;3.00;;;;;11.62;74.25;99415.47;5077953;28;45479;-77
2024/01/03 00:56:04;;;;;;;;;8.00;4.00;;;;;11.57;74.41;99401.88;5077421;28;46120;-76
2024/01/03 00:58:30;;;;;;;;;6.00;3.00;;;;;11.24;74.37;99349.00;5077438;28;45450;-77
2024/01/03 01:00:55;;;;;;;;;4.67;4.67;;;;;11.61;74.38;99410.31;5059603;28;45410;-78
2024/01/03 01:03:21;;;;;;;;;5.33;5.33;;;;;11.57;74.58;99402.69;5079232;28;45590;-77
2024/01/03 01:05:47;;;;;;;;;1.67;1.67;;;;;11.58;74.10;99412.34;5077421;28;46175;-77
2024/01/03 01:08:13;;;;;;;;;4.33;3.33;;;;;11.46;74.15;99381.03;5076832;28;45375;-76
2024/01/03 01:10:38;;;;;;;;;5.67;3.00;;;;;11.51;74.02;99394.63;5076945;28;45309;-77
2024/01/03 01:13:03;;;;;;;;;3.00;2.00;;;;;11.43;74.11;99387.56;5077283;28;45329;-76
2024/01/03 01:15:29;;;;;;;;;2.00;1.00;;;;;11.45;74.00;99379.41;5077464;28;46318;-76
2024/01/03 01:17:55;;;;;;;;;5.00;4.00;;;;;11.61;74.06;99391.69;5079089;28;45484;-76
2024/01/03 01:20:20;;;;;;;;;2.00;2.00;;;;;11.71;73.78;99413.53;5078268;28;45422;-76
2024/01/03 01:22:45;;;;;;;;;7.00;3.00;;;;;11.73;74.14;99401.69;5077713;28;45463;-76
2024/01/03 01:25:11;;;;;;;;;5.67;1.00;;;;;11.71;74.23;99397.56;5076380;28;47008;-76
2024/01/03 01:27:36;;;;;;;;;3.00;3.00;;;;;11.59;73.92;99373.22;5077345;28;45460;-76
2024/01/03 01:30:02;;;;;;;;;4.75;2.00;;;;;11.68;74.37;99403.25;5077043;28;45390;-76
2024/01/03 01:32:27;;;;;;;;;6.00;4.00;;;;;11.76;73.99;99409.31;5077441;28;45287;-75
2024/01/03 01:34:52;;;;;;;;;5.00;3.00;;;;;11.74;74.06;99392.69;5076762;28;47129;-76
2024/01/03 01:37:17;;;;;;;;;7.00;2.67;;;;;11.71;74.72;99398.38;5076921;28;45622;-77
2024/01/03 01:39:44;;;;;;;;;6.33;2.33;;;;;11.70;74.43;99415.38;5077143;28;45449;-75
2024/01/03 01:42:10;;;;;;;;;3.00;3.00;;;;;11.66;74.59;99403.44;5077163;28;45658;-77
2024/01/03 01:44:35;;;;;;;;;3.00;3.00;;;;;11.67;74.59;99410.41;5076085;28;45470;-75
2024/01/03 01:47:01;;;;;;;;;2.33;1.00;;;;;11.65;74.90;99412.44;5076354;28;45444;-78
2024/01/03 01:49:26;;;;;;;;;5.33;2.33;;;;;11.68;74.80;99414.75;5076635;28;45425;-75
2024/01/03 01:51:53;;;;;;;;;2.00;2.00;;;;;11.69;74.81;99412.91;5077529;28;45430;-76
2024/01/03 01:54:19;;;;;;;;;5.67;3.00;;;;;11.61;74.83;99397.81;5077640;28;46275;-76
2024/01/03 01:56:46;;;;;;;;;4.33;3.67;;;;;11.71;75.07;99408.22;5077561;28;45494;-76
2024/01/03 01:59:12;;;;;;;;;3.33;1.00;;;;;11.75;74.65;99420.16;5077783;28;45550;-75
2024/01/03 02:01:38;;;;;;;;;2.67;2.00;;;;;11.77;74.68;99402.97;5077135;28;45549;-75
2024/01/03 02:04:07;;;;;;;;;5.00;2.00;;;;;11.73;74.10;99395.53;5076214;28;46093;-78
2024/01/03 02:06:34;;;;;;;;;4.67;2.33;;;;;11.76;74.25;99401.31;5077693;28;45354;-75
2024/01/03 02:08:59;;;;;;;;;4.67;2.00;;;;;11.75;74.54;99401.50;5078797;28;45386;-74
2024/01/03 02:11:25;;;;;;;;;3.50;1.00;;;;;11.78;74.43;99403.78;5077244;28;45495;-75
2024/01/03 02:13:50;;;;;;;;;1.33;1.33;;;;;11.68;74.67;99377.47;5075738;28;45427;-76
2024/01/03 02:16:15;;;;;;;;;4.67;3.00;;;;;11.36;74.80;99325.41;5058099;28;45399;-77
2024/01/03 02:18:41;;;;;;;;;3.00;3.00;;;;;11.76;75.11;99392.50;5076634;28;45254;-76
2024/01/03 02:21:15;;;;;;;;;5.00;4.67;;;;;11.73;75.29;99377.72;5077307;28;45404;-77
2024/01/03 02:23:41;;;;;;;;;5.67;3.00;;;;;11.64;75.35;99362.06;5076352;28;45406;-76
2024/01/03 02:26:06;;;;;;;;;4.67;4.67;;;;;11.77;75.79;99389.66;5075787;28;45271;-75
2024/01/03 02:28:31;;;;;;;;;2.33;1.33;;;;;11.74;75.39;99376.72;5076425;28;45230;-76
2024/01/03 02:30:57;;;;;;;;;4.67;1.33;;;;;11.70;76.11;99386.09;5075856;28;45399;-76
2024/01/03 02:33:22;;;;;;;;;3.33;2.67;;;;;11.75;76.50;99389.00;5075930;28;45478;-76
2024/01/03 02:35:47;;;;;;;;;9.00;4.00;;;;;11.76;76.56;99384.50;5075857;28;45279;-75
2024/01/03 02:38:13;;;;;;;;;6.33;4.00;;;;;11.74;76.82;99395.34;5075833;28;45290;-76
2024/01/03 02:40:38;;;;;;;;;3.25;3.00;;;;;11.58;77.07;99364.41;5057969;28;45449;-75
2024/01/03 02:43:03;;;;;;;;;7.67;3.67;;;;;11.56;76.70;99362.94;5076049;28;46338;-73
2024/01/03 02:45:29;;;;;;;;;7.00;4.67;;;;;11.70;77.35;99395.91;5076253;28;45457;-75
2024/01/03 02:47:54;;;;;;;;;6.33;3.00;;;;;11.70;76.81;99383.44;5075697;28;45517;-76
2024/01/03 02:50:20;;;;;;;;;3.67;3.67;;;;;11.68;76.94;99385.44;5076036;28;45456;-76
2024/01/03 02:52:45;;;;;;;;;6.33;2.67;;;;;11.51;77.41;99352.88;5075247;28;45447;-74
2024/01/03 02:55:10;;;;;;;;;5.50;2.00;;;;;11.77;77.51;99373.69;5075634;28;45267;-75
2024/01/03 02:57:36;;;;;;;;;8.67;3.67;;;;;11.66;76.88;99368.84;5075695;28;45406;-74
2024/01/03 03:00:01;;;;;;;;;6.50;2.50;;;;;11.72;77.38;99373.41;5075355;28;45516;-75
2024/01/03 03:02:27;;;;;;;;;5.00;3.00;;;;;11.75;77.33;99373.03;5075503;28;45775;-76
2024/01/03 03:04:52;;;;;;;;;5.00;2.75;;;;;11.75;76.89;99373.03;5075162;28;45481;-74
2024/01/03 03:07:17;;;;;;;;;4.33;2.33;;;;;11.73;76.91;99368.91;5075195;28;45510;-76
2024/01/03 03:09:43;;;;;;;;;4.67;3.00;;;;;11.75;77.02;99361.56;5075310;28;45342;-76
2024/01/03 03:12:08;;;;;;;;;4.67;3.33;;;;;11.76;77.19;99356.06;5074986;28;46026;-78
2024/01/03 03:14:33;;;;;;;;;5.00;3.33;;;;;11.81;77.32;99368.84;5074840;28;45385;-76
2024/01/03 03:16:59;;;;;;;;;3.00;3.00;;;;;11.71;77.43;99345.16;5075226;28;45306;-74
2024/01/03 03:19:24;;;;;;;;;3.67;3.67;;;;;11.76;77.13;99344.59;5057000;28;45346;-74
2024/01/03 03:21:49;;;;;;;;;3.67;3.00;;;;;11.83;77.11;99378.31;5074861;28;45801;-75
2024/01/03 03:24:15;;;;;;;;;6.33;2.33;;;;;11.86;77.85;99377.13;5056171;28;45402;-75
2024/01/03 03:26:40;;;;;;;;;6.00;3.33;;;;;11.83;79.20;99365.00;5057538;28;45419;-76
2024/01/03 03:29:06;;;;;;;;;3.67;3.67;;;;;11.81;80.16;99375.03;5076819;28;45563;-75
2024/01/03 03:31:32;;;;;;;;;3.33;3.00;;;;;11.58;81.21;99342.28;5074999;28;45873;-75
2024/01/03 03:33:57;;;;;;;;;6.33;3.67;;;;;11.74;81.82;99359.91;5075037;28;45414;-75
2024/01/03 03:36:22;;;;;;;;;2.00;2.00;;;;;11.69;82.77;99344.50;5074837;28;45426;-75
2024/01/03 03:38:48;;;;;;;;;5.67;3.00;;;;;11.52;83.02;99324.41;5075217;28;45315;-76
2024/01/03 03:41:14;;;;;;;;;5.67;2.00;;;;;11.74;82.94;99352.75;5074764;28;45567;-76
2024/01/03 03:43:40;;;;;;;;;4.00;2.00;;;;;11.76;82.96;99352.56;5075056;28;45448;-76
2024/01/03 03:46:06;;;;;;;;;4.00;2.67;;;;;11.70;83.07;99343.50;5075963;28;45385;-77
2024/01/03 03:48:32;;;;;;;;;3.00;3.00;;;;;11.63;82.69;99331.94;5075495;28;45426;-76
2024/01/03 03:50:58;;;;;;;;;1.00;1.00;;;;;11.58;82.60;99310.34;5076218;28;46066;-76
2024/01/03 03:53:23;;;;;;;;;4.00;2.75;;;;;11.55;81.63;99308.91;5075784;28;45406;-75
2024/01/03 03:55:48;;;;;;;;;3.00;1.00;;;;;11.67;81.17;99327.06;5075403;28;45508;-78
2024/01/03 03:58:14;;;;;;;;;1.75;1.00;;;;;11.64;79.82;99303.50;5075077;28;45430;-76
2024/01/03 04:00:39;;;;;;;;;1.75;0.00;;;;;11.63;79.69;99307.97;5055688;28;47040;-74
2024/01/03 04:03:07;;;;;;;;;0.75;0.00;;;;;11.72;78.83;99325.50;5074249;28;45323;-77
2024/01/03 04:05:37;;;;;;;;;1.50;0.00;;;;;11.57;78.36;99300.72;5074445;28;45358;-77
2024/01/03 04:08:03;;;;;;;;;0.25;0.00;;;;;11.71;79.17;99333.66;5074406;28;45466;-75
2024/01/03 04:10:28;;;;;;;;;6.00;4.00;;;;;11.67;78.89;99338.53;5074404;28;47442;-75
2024/01/03 04:12:55;;;;;;;;;2.00;2.00;;;;;11.56;79.18;99331.00;5074419;28;45516;-77
2024/01/03 04:15:24;;;;;;;;;0.25;0.25;;;;;11.44;79.91;99327.19;5074158;28;45397;-75
2024/01/03 04:17:49;;;;;;;;;0.50;0.00;;;;;11.58;80.10;99350.28;5074642;28;45739;-76
2024/01/03 04:20:15;;;;;;;;;0.00;0.00;;;;;11.57;80.59;99369.94;5074460;28;46140;-76
2024/01/03 04:22:42;;;;;;;;;0.00;0.00;;;;;11.57;81.19;99359.28;5074564;28;45943;-75
2024/01/03 04:25:08;;;;;;;;;1.75;0.00;;;;;11.56;81.64;99354.97;5074260;28;45685;-76
2024/01/03 04:27:33;;;;;;;;;0.25;0.25;;;;;11.35;81.93;99322.94;5074297;28;45396;-75
2024/01/03 04:29:58;;;;;;;;;4.00;1.00;;;;;11.58;81.28;99361.75;5073796;28;46182;-76
2024/01/03 04:32:24;;;;;;;;;2.00;0.25;;;;;11.56;81.17;99360.28;5073804;28;45401;-74
2024/01/03 04:34:49;;;;;;;;;3.50;1.00;;;;;11.58;80.58;99359.09;5073692;28;45437;-75
2024/01/03 04:37:15;;;;;;;;;1.00;1.00;;;;;11.62;80.68;99359.56;5074024;28;45320;-75
2024/01/03 04:39:40;;;;;;;;;1.25;1.00;;;;;11.54;80.12;99349.00;5055267;28;46208;-76
2024/01/03 04:42:05;;;;;;;;;2.00;1.00;;;;;11.64;80.04;99365.53;5073801;28;45286;-74
2024/01/03 04:44:31;;;;;;;;;3.25;0.50;;;;;11.59;79.08;99368.72;5055481;28;45340;-78
2024/01/03 04:46:56;;;;;;;;;2.50;1.00;;;;;11.66;78.66;99366.19;5074007;28;45403;-76
2024/01/03 04:49:21;;;;;;;;;0.00;0.00;;;;;11.63;78.34;99385.19;5074073;28;48808;-76
2024/01/03 04:51:47;;;;;;;;;2.75;0.00;;;;;11.54;77.84;99365.81;5077882;28;45699;-74
2024/01/03 04:54:12;;;;;;;;;0.50;0.50;;;;;11.51;77.41;99354.69;5075438;28;45779;-75
2024/01/03 04:56:38;;;;;;;;;1.25;1.25;;;;;11.64;77.06;99391.34;5075608;28;45422;-75
2024/01/03 04:59:03;;;;;;;;;1.00;1.00;;;;;11.65;77.43;99387.66;5073922;28;45394;-76
2024/01/03 05:01:29;;;;;;;;;1.00;0.00;;;;;11.61;76.99;99392.50;5078843;28;45373;-75
2024/01/03 05:03:54;;;;;;;;;2.00;2.00;;;;;11.55;76.35;99367.44;5079206;28;45509;-76
2024/01/03 05:06:21;;;;;;;;;2.50;2.00;;;;;11.57;76.48;99369.94;5078225;28;45419;-75
2024/01/03 05:08:46;;;;;;;;;2.00;0.25;;;;;11.70;76.54;99391.41;5076968;28;45405;-74
2024/01/03 05:11:12;;;;;;;;;5.75;1.00;;;;;11.73;75.79;99400.88;5077418;28;45503;-77
2024/01/03 05:13:37;;;;;;;;;0.00;0.00;;;;;11.73;75.69;99393.69;5077874;28;45381;-74
2024/01/03 05:16:03;;;;;;;;;1.00;0.00;;;;;11.51;75.38;99363.50;5077496;28;45446;-75
2024/01/03 05:18:28;;;;;;;;;0.00;0.00;;;;;11.66;74.92;99407.94;5076918;28;46200;-77
2024/01/03 05:20:53;;;;;;;;;1.75;0.25;;;;;11.68;74.59;99404.09;5076954;28;45298;-75
2024/01/03 05:23:19;;;;;;;;;0.75;0.75;;;;;11.69;74.26;99407.56;5076770;28;45255;-75
2024/01/03 05:25:44;;;;;;;;;0.50;0.50;;;;;11.38;74.76;99354.50;5076608;28;45417;-74
2024/01/03 05:28:09;;;;;;;;;0.00;0.00;;;;;11.65;74.33;99404.47;5076286;28;45232;-75
2024/01/03 05:30:35;;;;;;;;;1.00;0.00;;;;;11.66;74.28;99406.09;5076719;28;45435;-76
2024/01/03 05:33:00;;;;;;;;;2.00;1.33;;;;;11.54;74.40;99386.28;5076948;28;45665;-75
2024/01/03 05:35:25;;;;;;;;;0.67;0.67;;;;;11.63;74.64;99403.00;5077091;28;45343;-74
2024/01/03 05:37:51;;;;;;;;;3.00;1.00;;;;;11.65;74.85;99417.78;5076696;28;45637;-78
2024/01/03 05:40:18;;;;;;;;;0.00;0.00;;;;;11.63;75.09;99421.63;5076359;28;45358;-75
2024/01/03 05:42:44;;;;;;;;;2.50;1.00;;;;;11.41;75.67;99392.25;5076595;28;45434;-77
2024/01/03 05:45:09;;;;;;;;;3.00;1.00;;;;;11.50;76.42;99411.59;5057622;28;45493;-76
2024/01/03 05:47:34;;;;;;;;;0.00;0.00;;;;;11.54;76.61;99431.50;5075985;28;46222;-74
2024/01/03 05:50:00;;;;;;;;;1.75;1.00;;;;;11.50;77.35;99430.22;5058010;28;45480;-75
2024/01/03 05:52:25;;;;;;;;;1.00;0.00;;;;;11.39;77.57;99414.69;5076623;28;45784;-75
2024/01/03 05:54:51;;;;;;;;;2.00;0.00;;;;;11.46;78.53;99439.59;5076595;28;45527;-75
2024/01/03 05:57:17;;;;;;;;;0.00;0.00;;;;;11.44;78.74;99442.44;5075442;28;45514;-75
2024/01/03 05:59:42;;;;;;;;;2.67;1.00;;;;;11.40;78.94;99442.97;5076004;28;45594;-75
2024/01/03 06:02:08;;;;;;;;;1.75;1.00;;;;;11.36;79.19;99439.84;5076059;28;45525;-77
2024/01/03 06:04:33;;;;;;;;;1.00;1.00;;;;;11.26;79.35;99421.50;5076120;28;45462;-76
2024/01/03 06:06:58;;;;;;;;;0.00;0.00;;;;;11.35;79.78;99445.34;5075839;28;45916;-77
2024/01/03 06:09:24;;;;;;;;;3.00;1.75;;;;;11.38;79.33;99445.81;5075801;28;45430;-75
2024/01/03 06:11:49;;;;;;;;;4.25;1.25;;;;;11.38;79.78;99452.97;5075100;28;45528;-76
2024/01/03 06:14:14;;;;;;;;;1.50;1.00;;;;;11.32;79.73;99451.84;5075772;28;45929;-76
2024/01/03 06:16:40;;;;;;;;;2.00;2.00;;;;;11.38;79.82;99447.63;5075211;28;46251;-75
2024/01/03 06:19:05;;;;;;;;;3.25;2.25;;;;;11.34;79.66;99435.72;5075514;28;45476;-76
2024/01/03 06:21:32;;;;;;;;;6.33;3.67;;;;;11.37;79.66;99451.31;5075761;28;45264;-76
2024/01/03 06:23:58;;;;;;;;;3.33;1.67;;;;;11.36;79.92;99442.50;5075816;28;45437;-76
2024/01/03 06:26:26;;;;;;;;;1.00;1.00;;;;;11.33;79.79;99442.88;5074721;28;45366;-76
2024/01/03 06:28:51;;;;;;;;;1.67;1.00;;;;;11.32;80.06;99454.50;5075303;28;45413;-76
2024/01/03 06:31:21;;;;;;;;;3.00;3.00;;;;;11.32;79.82;99456.34;5075858;28;45945;-76
2024/01/03 06:33:47;;;;;;;;;2.00;2.00;;;;;11.31;79.85;99457.38;5075805;28;45484;-76
2024/01/03 06:36:13;;;;;;;;;5.00;4.67;;;;;11.01;79.60;99406.72;5075457;28;46037;-77
2024/01/03 06:38:38;;;;;;;;;1.00;1.00;;;;;11.30;79.59;99447.72;5075795;28;45738;-77
2024/01/03 06:41:03;;;;;;;;;3.67;2.67;;;;;11.13;79.69;99426.59;5075616;28;46256;-76
2024/01/03 06:43:29;;;;;;;;;1.67;0.33;;;;;11.24;80.29;99452.78;5057807;28;45613;-76
2024/01/03 06:45:55;;;;;;;;;3.67;3.00;;;;;11.33;80.12;99469.47;5057450;28;48327;-76
2024/01/03 06:48:21;;;;;;;;;5.33;4.33;;;;;10.98;79.99;99423.03;5076762;28;45389;-75
2024/01/03 06:50:46;;;;;;;;;8.00;2.67;;;;;11.18;79.96;99445.47;5076387;28;45412;-79
2024/01/03 06:53:12;;;;;;;;;2.67;1.67;;;;;11.27;79.99;99455.06;5077168;28;45370;-78
2024/01/03 06:55:37;;;;;;;;;2.33;2.00;;;;;11.33;79.89;99468.66;5076433;28;46056;-78
2024/01/03 06:58:02;;;;;;;;;7.33;5.33;;;;;11.34;79.88;99465.81;5075772;28;45367;-77
2024/01/03 07:00:28;;;;;;;;;3.00;1.00;;;;;11.30;80.17;99474.34;5075756;28;45732;-77
2024/01/03 07:02:53;;;;;;;;;3.67;3.33;;;;;11.20;79.75;99458.59;5075581;28;45432;-77
2024/01/03 07:05:18;;;;;;;;;2.33;1.00;;;;;11.12;80.34;99454.19;5075388;28;45362;-78
2024/01/03 07:07:44;;;;;;;;;2.33;1.00;;;;;11.27;79.71;99478.19;5077674;28;45394;-77
2024/01/03 07:10:09;;;;;;;;;4.33;1.00;;;;;11.24;80.25;99482.03;5078780;28;45343;-76
2024/01/03 07:12:34;;;;;;;;;4.00;3.00;;;;;11.24;80.25;99482.03;5079380;28;45552;-78
2024/01/03 07:15:00;;;;;;;;;2.75;2.75;;;;;11.26;80.00;99480.00;5080495;28;45362;-77
2024/01/03 07:17:25;;;;;;;;;8.00;4.67;;;;;11.26;79.76;99474.69;5079703;28;45294;-79
2024/01/03 07:19:50;;;;;;;;;6.00;3.00;;;;;10.61;79.97;99374.19;5078649;28;45279;-78
2024/01/03 07:22:16;;;;;;;;;3.33;2.00;;;;;11.23;79.82;99479.56;5063573;28;45500;-76
2024/01/03 07:24:41;;;;;;;;;3.33;2.00;;;;;10.88;80.05;99418.00;5077458;28;46974;-79
2024/01/03 07:27:07;;;;;;;;;4.67;3.33;;;;;11.24;79.89;99484.69;5077758;28;45228;-76
2024/01/03 07:29:32;;;;;;;;;5.33;4.00;;;;;11.09;80.17;99449.22;5077495;28;45383;-76
2024/01/03 07:31:58;;;;;;;;;5.33;2.00;;;;;11.14;80.23;99467.31;5077364;28;45431;-76
2024/01/03 07:34:23;;;;;;;;;3.33;2.33;;;;;10.95;79.65;99423.41;5076398;28;45229;-77
2024/01/03 07:36:49;;;;;;;;;6.33;4.33;;;;;11.22;79.66;99468.09;5076338;28;45394;-76
2024/01/03 07:39:15;;;;;;;;;3.00;2.00;;;;;10.70;79.83;99390.06;5075657;28;45381;-78
2024/01/03 07:41:40;;;;;;;;;5.33;3.00;;;;;11.26;79.65;99495.97;5057535;28;45714;-78
2024/01/03 07:44:05;;;;;;;;;3.50;0.00;;;;;11.27;79.58;99487.00;5074951;28;45310;-75
2024/01/03 07:46:31;;;;;;;;;6.00;3.67;;;;;11.21;79.21;99481.53;5056400;28;46030;-77
2024/01/03 07:48:56;;;;;;;;;8.67;5.00;;;;;11.26;79.48;99495.16;5074263;28;45398;-79
2024/01/03 07:51:21;;;;;;;;;2.00;1.00;;;;;11.27;79.65;99484.34;5057600;28;45484;-76
2024/01/03 07:53:47;;;;;;;;;4.00;2.00;;;;;11.28;79.42;99499.28;5075439;28;46098;-75
2024/01/03 07:56:13;;;;;;;;;5.67;3.00;;;;;11.14;79.64;99465.47;5080454;28;45443;-78
2024/01/03 07:58:38;;;;;;;;;4.33;2.33;;;;;11.30;79.39;99496.44;5078029;28;45461;-76
2024/01/03 08:01:04;;;;;;;;;3.33;2.33;;;;;11.33;79.30;99496.09;5057490;28;45353;-76
2024/01/03 08:03:29;;;;;;;;;5.00;4.00;;;;;10.83;78.73;99411.56;5076130;28;46198;-79
2024/01/03 08:05:55;;;;;;;;;6.00;3.00;;;;;11.32;79.26;99481.13;5075224;28;45339;-77
2024/01/03 08:08:20;;;;;;;;;4.33;3.00;;;;;11.19;78.82;99457.78;5076040;28;45484;-77
2024/01/03 08:10:45;;;;;;;;;2.00;1.50;;;;;11.28;78.02;99466.53;5075178;28;45346;-76
2024/01/03 08:13:12;;;;;;;;;6.25;2.00;;;;;11.53;77.55;99509.72;5075327;28;46048;-79
2024/01/03 08:15:37;;;;;;;;;2.00;2.00;;;;;11.39;77.51;99478.56;5078982;28;45402;-77
2024/01/03 08:18:03;;;;;;;;;4.00;2.33;;;;;11.24;77.31;99455.44;5076092;28;45307;-77
2024/01/03 08:20:28;;;;;;;;;1.75;1.75;;;;;11.63;77.86;99517.47;5079929;28;45454;-78
2024/01/03 08:22:54;;;;;;;;;4.00;1.75;;;;;11.66;78.75;99512.59;5059627;28;47130;-79
2024/01/03 08:25:19;;;;;;;;;1.75;0.75;;;;;11.39;79.45;99468.75;5059766;28;45266;-77
2024/01/03 08:27:44;;;;;;;;;3.25;2.25;;;;;11.66;80.36;99517.91;5077558;28;45317;-77
2024/01/03 08:30:10;;;;;;;;;3.33;2.67;;;;;11.72;80.51;99533.16;5076053;28;45398;-78
2024/01/03 08:32:36;;;;;;;;;5.00;2.50;;;;;11.77;80.48;99535.28;5074976;28;46652;-78
2024/01/03 08:35:03;;;;;;;;;3.00;1.50;;;;;11.73;81.16;99526.84;5076303;28;45465;-78
2024/01/03 08:37:29;;;;;;;;;3.33;3.33;;;;;11.30;81.79;99445.06;5079517;28;45550;-78
2024/01/03 08:39:56;;;;;;;;;3.50;2.25;;;;;11.62;81.93;99511.31;5080509;28;45221;-76
2024/01/03 08:42:24;;;;;;;;;4.25;2.00;;;;;11.67;81.97;99516.91;5060372;28;48267;-78
2024/01/03 08:44:51;;;;;;;;;5.33;4.00;;;;;11.64;82.35;99511.13;5060228;28;45490;-76
2024/01/03 08:47:17;;;;;;;;;6.33;3.00;;;;;11.62;82.32;99518.47;5078233;28;45365;-76
2024/01/03 08:49:43;;;;;;;;;5.00;3.25;;;;;11.63;82.19;99518.28;5078753;28;45364;-77
2024/01/03 08:52:09;;;;;;;;;9.00;7.67;;;;;11.61;82.16;99503.47;5077903;28;45998;-77
2024/01/03 08:54:34;;;;;;;;;3.75;2.50;;;;;11.63;82.28;99512.13;5077846;28;45490;-78
2024/01/03 08:56:59;;;;;;;;;7.00;4.00;;;;;11.97;82.26;99514.31;5078364;28;45475;-77
2024/01/03 08:59:25;;;;;;;;;3.00;2.00;;;;;12.72;79.02;99508.72;5079043;28;45451;-77
2024/01/03 09:01:52;;;;;;;;;1.25;1.00;;;;;13.62;74.75;99486.84;5060267;28;46054;-76
2024/01/03 09:04:17;;;;;;;;;1.75;1.75;;;;;14.31;71.33;99501.00;5080707;28;45414;-80
2024/01/03 09:06:43;;;;;;;;;6.00;4.33;;;;;14.71;69.31;99487.00;5080814;28;45637;-80
2024/01/03 09:09:08;;;;;;;;;5.33;2.00;;;;;14.94;66.83;99473.28;5080196;28;45410;-78
2024/01/03 09:11:34;;;;;;;;;4.67;3.33;;;;;14.79;65.42;99420.75;5079690;28;45427;-79
2024/01/03 09:13:59;;;;;;;;;5.67;2.33;;;;;15.30;65.16;99507.72;5060530;28;45376;-77
2024/01/03 09:16:26;;;;;;;;;5.33;4.33;;;;;14.55;66.42;99488.19;5079339;28;45505;-78
2024/01/03 09:18:52;;;;;;;;;3.25;2.25;;;;;13.99;68.42;99488.28;5060162;28;45414;-76
2024/01/03 09:21:18;;;;;;;;;6.00;3.50;;;;;13.81;69.27;99506.66;5059934;28;47076;-75
2024/01/03 09:23:44;;;;;;;;;5.00;3.00;;;;;13.63;70.16;99508.00;5078733;28;45376;-77
2024/01/03 09:26:10;;;;;;;;;5.25;2.25;;;;;13.51;71.20;99509.53;5079679;28;45465;-78
2024/01/03 09:28:39;;;;;;;;;9.33;4.00;;;;;13.31;70.87;99508.53;5079997;28;45292;-80
2024/01/03 09:31:05;;;;;;;;;2.50;2.50;;;;;12.33;71.55;99395.28;5079066;28;46120;-78
2024/01/03 09:33:31;;;;;;;;;6.00;3.00;;;;;12.99;71.73;99516.00;5079701;28;45389;-77
2024/01/03 09:35:56;;;;;;;;;5.75;1.00;;;;;12.73;72.66;99489.03;5079463;28;45445;-78
2024/01/03 09:38:22;;;;;;;;;5.33;5.33;;;;;12.36;72.85;99434.88;5080176;28;45506;-77
2024/01/03 09:40:51;;;;;;;;;5.50;3.50;;;;;12.88;72.95;99513.00;5081276;28;45594;-79
2024/01/03 09:43:17;;;;;;;;;6.00;4.33;;;;;12.85;72.37;99513.38;5081052;28;45352;-80
2024/01/03 09:45:43;;;;;;;;;3.25;2.25;;;;;12.89;72.81;99528.00;5080257;28;45487;-78
2024/01/03 09:48:09;;;;;;;;;3.00;3.00;;;;;12.05;73.33;99378.38;5079201;28;45624;-79
2024/01/03 09:50:35;;;;;;;;;8.00;7.00;;;;;12.77;73.81;99500.97;5078418;28;45501;-78
2024/01/03 09:53:01;;;;;;;;;10.25;5.00;;;;;12.82;73.37;99527.09;5078865;28;45423;-77
2024/01/03 09:55:29;;;;;;;;;4.00;4.00;;;;;12.53;73.87;99474.66;5078364;28;45488;-78
2024/01/03 09:57:55;;;;;;;;;6.75;3.25;;;;;12.75;74.21;99519.00;5079735;28;45607;-76
2024/01/03 10:00:20;;;;;;;;;4.75;2.25;;;;;12.76;73.98;99516.16;5077872;28;45264;-77
2024/01/03 10:02:47;;;;;;;;;6.00;2.75;;;;;12.73;74.34;99510.38;5077802;28;45288;-79
2024/01/03 10:05:20;;;;;;;;;2.67;2.67;;;;;12.49;73.96;99459.03;5060077;28;45361;-78
2024/01/03 10:07:46;;;;;;;;;3.25;2.25;;;;;12.76;73.99;99508.16;5077980;28;45398;-78
2024/01/03 10:10:12;;;;;;;;;2.25;1.50;;;;;12.77;74.71;99500.97;5077600;28;45362;-80
2024/01/03 10:12:37;;;;;;;;;6.00;3.00;;;;;12.86;74.81;99531.88;5076983;28;45377;-77
2024/01/03 10:15:16;;;;;;;;;7.00;2.00;;;;;12.22;74.95;99408.31;5077707;28;45534;-79
2024/01/03 10:17:46;;;;;;;;;5.75;3.50;;;;;12.79;75.01;99505.09;5042284;28;45566;-77
2024/01/03 10:20:26;;;;;;;;;5.25;3.50;;;;;12.89;75.15;99530.66;5058556;28;46548;-76
2024/01/03 10:23:03;;;;;;;;;7.00;3.75;;;;;12.90;74.87;99524.31;5077181;28;45527;-78
2024/01/03 10:25:29;;;;;;;;;3.75;2.25;;;;;12.93;74.99;99522.09;5077026;28;45437;-78
2024/01/03 10:28:05;;;;;;;;;5.75;3.00;;;;;12.78;75.03;99497.28;5077468;28;45505;-78
2024/01/03 10:30:31;;;;;;;;;5.75;3.00;;;;;12.87;74.63;99514.84;5077045;28;45299;-78
2024/01/03 10:33:01;;;;;;;;;2.25;1.00;;;;;12.39;74.79;99418.53;5076094;28;45496;-76
2024/01/03 10:35:27;;;;;;;;;3.75;1.50;;;;;12.63;74.83;99478.69;5076492;28;45409;-78
2024/01/03 10:37:55;;;;;;;;;4.75;3.00;;;;;12.76;75.16;99491.31;5077613;28;45409;-78
2024/01/03 10:40:23;;;;;;;;;5.00;3.00;;;;;12.72;75.29;99496.22;5076701;28;45374;-76
2024/01/03 10:42:51;;;;;;;;;2.00;2.00;;;;;12.50;75.44;99467.88;5076784;28;45653;-78
2024/01/03 10:45:17;;;;;;;;;3.67;3.67;;;;;12.65;75.59;99491.84;5062612;28;45594;-79
2024/01/03 10:47:42;;;;;;;;;1.00;0.00;;;;;12.69;75.63;99490.44;5082120;28;45746;-79
2024/01/03 10:50:08;;;;;;;;;3.00;1.00;;;;;12.53;75.50;99459.50;5080313;28;45525;-77
2024/01/03 10:52:39;;;;;;;;;5.00;3.00;;;;;12.59;75.19;99481.91;5080472;28;45615;-77
2024/01/03 10:55:05;;;;;;;;;2.25;2.00;;;;;12.58;75.28;99469.59;5058921;28;45544;-79
2024/01/03 10:57:35;;;;;;;;;3.25;2.00;;;;;12.68;75.31;99489.63;5058427;28;45640;-76
2024/01/03 11:00:19;;;;;;;;;3.25;2.25;;;;;12.72;74.74;99498.88;5076074;28;46155;-78
2024/01/03 11:03:05;;;;;;;;;5.50;4.75;;;;;12.57;74.75;99462.59;5076159;28;45592;-78
2024/01/03 11:05:43;;;;;;;;;10.33;4.33;;;;;12.26;74.42;99410.41;5076036;28;45692;-78
2024/01/03 11:08:13;;;;;;;;;4.75;3.00;;;;;12.71;74.10;99472.41;5077571;28;45290;-78
2024/01/03 11:10:51;;;;;;;;;4.00;4.00;;;;;12.51;74.65;99436.69;5075979;28;46087;-77
2024/01/03 11:13:33;;;;;;;;;3.67;2.67;;;;;12.87;73.86;99496.19;5075931;28;45489;-78
2024/01/03 11:16:01;;;;;;;;;2.00;1.00;;;;;12.86;73.60;99475.03;5057863;28;45395;-78
2024/01/03 11:18:41;;;;;;;;;3.25;2.75;;;;;13.00;73.48;99469.63;5057694;28;45572;-77
2024/01/03 11:21:27;;;;;;;;;4.00;3.00;;;;;13.04;73.12;99468.25;5075488;28;45393;-77
2024/01/03 11:23:53;;;;;;;;;7.67;4.00;;;;;13.00;72.20;99448.28;5076162;28;45536;-79
2024/01/03 11:26:18;;;;;;;;;6.00;3.00;;;;;13.13;72.01;99468.09;5075618;28;45384;-78
2024/01/03 11:28:50;;;;;;;;;4.75;2.50;;;;;13.19;72.39;99451.34;5075952;28;45566;-78
2024/01/03 11:31:53;;;;;;;;;5.00;3.33;;;;;13.23;71.67;99447.28;5075332;28;46021;-77